createdAt,value
2023-04-14T00:00:54.454Z,8.37
2023-04-14T00:03:22.565Z,8.37
2023-04-14T00:05:50.740Z,8.33
2023-04-14T00:08:18.701Z,8.34
2023-04-14T00:10:46.757Z,8.34
2023-04-14T00:13:14.554Z,8.35
2023-04-14T00:15:44.946Z,8.35
2023-04-14T00:18:13.669Z,8.35
2023-04-14T00:20:41.553Z,8.36
2023-04-14T00:23:09.265Z,8.37
2023-04-14T00:25:36.985Z,8.36
2023-04-14T00:28:04.704Z,8.35
2023-04-14T00:30:32.690Z,8.32
2023-04-14T00:33:00.624Z,8.33
2023-04-14T00:35:28.453Z,8.32
2023-04-14T00:37:57.340Z,8.33
2023-04-14T00:40:25.326Z,8.33
2023-04-14T00:42:53.072Z,8.33
2023-04-14T00:45:21.227Z,8.31
2023-04-14T00:47:53.391Z,8.28
2023-04-14T00:50:21.679Z,8.27
2023-04-14T00:52:50.567Z,8.28
2023-04-14T00:55:20.671Z,8.28
2023-04-14T00:57:49.158Z,8.28
2023-04-14T01:00:17.225Z,8.28
2023-04-14T01:02:45.249Z,8.29
2023-04-14T01:05:13.892Z,8.30
2023-04-14T01:07:41.882Z,8.28
2023-04-14T01:10:10.468Z,8.26
2023-04-14T01:13:14.203Z,8.25
2023-04-14T01:15:53.473Z,8.25
2023-04-14T01:18:36.204Z,8.23
2023-04-14T01:21:11.747Z,8.25
2023-04-14T01:23:41.945Z,8.28
2023-04-14T01:26:19.772Z,8.28
2023-04-14T01:29:02.953Z,8.25
2023-04-14T01:31:56.671Z,8.21
2023-04-14T01:34:51.160Z,8.21
2023-04-14T01:37:42.647Z,8.24
2023-04-14T01:40:14.746Z,8.26
2023-04-14T01:42:48.077Z,8.28
2023-04-14T01:45:27.370Z,8.28
2023-04-14T01:47:56.386Z,8.28
2023-04-14T01:50:27.374Z,8.27
2023-04-14T01:52:55.797Z,8.23
2023-04-14T01:55:27.080Z,8.24
2023-04-14T01:57:55.861Z,8.24
2023-04-14T02:00:25.013Z,8.25
2023-04-14T02:02:53.739Z,8.27
2023-04-14T02:05:22.476Z,8.30
2023-04-14T02:07:51.762Z,8.30
2023-04-14T02:10:21.131Z,8.29
2023-04-14T02:12:51.731Z,8.27
2023-04-14T02:15:20.763Z,8.25
2023-04-14T02:17:49.738Z,8.23
2023-04-14T02:20:20.576Z,8.23
2023-04-14T02:22:50.522Z,8.25
2023-04-14T02:25:18.854Z,8.25
2023-04-14T02:27:53.302Z,8.25
2023-04-14T02:30:25.059Z,8.25
2023-04-14T02:32:58.729Z,8.24
2023-04-14T02:35:28.781Z,8.24
2023-04-14T02:38:10.218Z,8.25
2023-04-14T02:40:39.625Z,8.25
2023-04-14T02:43:13.717Z,8.27
2023-04-14T02:45:42.679Z,8.26
2023-04-14T02:48:13.338Z,8.25
2023-04-14T02:50:44.118Z,8.23
2023-04-14T02:53:12.318Z,8.21
2023-04-14T02:55:40.382Z,8.20
2023-04-14T02:58:08.586Z,8.22
2023-04-14T03:00:55.814Z,8.23
2023-04-14T03:03:23.836Z,8.24
2023-04-14T03:05:51.686Z,8.24
2023-04-14T03:08:19.721Z,8.21
2023-04-14T03:10:48.388Z,8.20
2023-04-14T03:13:16.857Z,8.20
2023-04-14T03:15:45.076Z,8.21
2023-04-14T03:18:13.321Z,8.23
2023-04-14T03:20:41.825Z,8.24
2023-04-14T03:23:11.925Z,8.24
2023-04-14T03:25:40.725Z,8.24
2023-04-14T03:28:16.023Z,8.22
2023-04-14T03:30:47.692Z,8.21
2023-04-14T03:33:23.000Z,8.21
2023-04-14T03:35:53.560Z,8.21
2023-04-14T03:38:21.742Z,8.23
2023-04-14T03:40:50.671Z,8.25
2023-04-14T03:43:23.593Z,8.25
2023-04-14T03:45:52.106Z,8.24
2023-04-14T03:48:20.984Z,8.23
2023-04-14T03:50:51.684Z,8.22
2023-04-14T03:53:21.463Z,8.23
2023-04-14T03:55:52.080Z,8.24
2023-04-14T03:58:20.557Z,8.24
2023-04-14T04:00:51.692Z,8.23
2023-04-14T04:03:20.000Z,8.22
2023-04-14T04:05:48.250Z,8.20
2023-04-14T04:08:16.663Z,8.18
2023-04-14T04:10:46.337Z,8.18
2023-04-14T04:13:19.569Z,8.17
2023-04-14T04:15:50.141Z,8.18
2023-04-14T04:18:18.612Z,8.18
2023-04-14T04:20:46.917Z,8.20
2023-04-14T04:23:19.648Z,8.18
2023-04-14T04:25:48.008Z,8.15
2023-04-14T04:28:16.797Z,8.14
2023-04-14T04:30:45.753Z,8.11
2023-04-14T04:33:13.754Z,8.14
2023-04-14T04:35:42.919Z,8.16
2023-04-14T04:38:11.564Z,8.18
2023-04-14T04:40:39.401Z,8.17
2023-04-14T04:43:07.225Z,8.15
2023-04-14T04:45:44.311Z,8.14
2023-04-14T04:48:12.325Z,8.14
2023-04-14T04:50:40.591Z,8.14
2023-04-14T04:53:08.458Z,8.17
2023-04-14T04:55:36.366Z,8.18
2023-04-14T04:58:04.172Z,8.19
2023-04-14T05:00:32.291Z,8.17
2023-04-14T05:03:00.343Z,8.18
2023-04-14T05:05:28.382Z,8.16
2023-04-14T05:07:56.095Z,8.18
2023-04-14T05:10:24.140Z,8.16
2023-04-14T05:12:51.924Z,8.18
2023-04-14T05:15:22.650Z,8.19
2023-04-14T05:17:51.234Z,8.18
2023-04-14T05:20:21.597Z,8.17
2023-04-14T05:22:49.308Z,8.20
2023-04-14T05:25:17.236Z,8.19
2023-04-14T05:27:45.031Z,8.21
2023-04-14T05:30:13.420Z,8.24
2023-04-14T05:32:41.408Z,8.26
2023-04-14T05:35:09.312Z,8.27
2023-04-14T05:37:37.137Z,8.29
2023-04-14T05:40:05.428Z,8.30
2023-04-14T05:42:33.144Z,8.28
2023-04-14T05:45:01.227Z,8.26
2023-04-14T05:47:29.066Z,8.27
2023-04-14T05:49:58.628Z,8.29
2023-04-14T05:52:26.477Z,8.29
2023-04-14T05:54:54.561Z,8.32
2023-04-14T05:57:22.278Z,8.32
2023-04-14T05:59:49.977Z,8.32
2023-04-14T06:02:17.741Z,8.28
2023-04-14T06:04:45.757Z,8.28
2023-04-14T06:07:13.593Z,8.28
2023-04-14T06:09:42.746Z,8.29
2023-04-14T06:12:11.784Z,8.32
2023-04-14T06:14:39.922Z,8.35
2023-04-14T06:17:07.771Z,8.35
2023-04-14T06:19:35.766Z,8.35
2023-04-14T06:22:03.866Z,8.33
2023-04-14T06:24:34.755Z,8.32
2023-04-14T06:27:06.983Z,8.33
2023-04-14T06:29:34.773Z,8.34
2023-04-14T06:32:02.595Z,8.34
2023-04-14T06:34:30.460Z,8.36
2023-04-14T06:36:59.161Z,8.37
2023-04-14T06:39:27.533Z,8.37
2023-04-14T06:41:55.685Z,8.36
2023-04-14T06:44:23.663Z,8.36
2023-04-14T06:46:51.757Z,8.39
2023-04-14T06:49:20.374Z,8.43
2023-04-14T06:51:48.386Z,8.44
2023-04-14T06:54:16.168Z,8.44
2023-04-14T06:56:43.870Z,8.44
2023-04-14T06:59:11.831Z,8.45
2023-04-14T07:01:39.763Z,8.45
2023-04-14T07:04:08.559Z,8.46
2023-04-14T07:06:36.703Z,8.48
2023-04-14T07:09:04.576Z,8.50
2023-04-14T07:11:33.518Z,8.51
2023-04-14T07:14:01.545Z,8.50
2023-04-14T07:16:29.524Z,8.51
2023-04-14T07:18:57.582Z,8.49
2023-04-14T07:21:25.640Z,8.50
2023-04-14T07:23:53.368Z,8.53
2023-04-14T07:26:21.753Z,8.54
2023-04-14T07:28:49.469Z,8.59
2023-04-14T07:31:17.341Z,8.61
2023-04-14T07:33:45.396Z,8.62
2023-04-14T07:36:13.297Z,8.62
2023-04-14T07:38:41.526Z,8.62
2023-04-14T07:41:09.281Z,8.62
2023-04-14T07:43:37.473Z,8.61
2023-04-14T07:46:06.812Z,8.61
2023-04-14T07:48:36.065Z,8.62
2023-04-14T07:51:05.477Z,8.64
2023-04-14T07:53:33.656Z,8.65
2023-04-14T07:56:01.810Z,8.63
2023-04-14T07:58:29.900Z,8.61
2023-04-14T08:00:58.485Z,8.62
2023-04-14T08:03:26.946Z,8.62
2023-04-14T08:05:55.519Z,8.64
2023-04-14T08:08:24.353Z,8.65
2023-04-14T08:10:52.255Z,8.70
2023-04-14T08:13:20.072Z,8.74
2023-04-14T08:15:47.971Z,8.74
2023-04-14T08:18:15.845Z,8.72
2023-04-14T08:20:43.647Z,8.73
2023-04-14T08:23:12.260Z,8.74
2023-04-14T08:25:40.506Z,8.75
2023-04-14T08:28:08.205Z,8.74
2023-04-14T08:30:36.255Z,8.82
2023-04-14T08:33:04.460Z,8.85
2023-04-14T08:35:35.669Z,8.86
2023-04-14T08:38:08.699Z,8.87
2023-04-14T08:40:38.733Z,8.86
2023-04-14T08:43:07.122Z,8.84
2023-04-14T08:45:36.174Z,8.87
2023-04-14T08:48:05.126Z,8.92
2023-04-14T08:50:37.423Z,8.96
2023-04-14T08:53:09.421Z,8.99
2023-04-14T08:55:41.795Z,9.04
2023-04-14T08:58:10.974Z,9.05
2023-04-14T09:00:40.312Z,9.07
2023-04-14T09:03:09.633Z,9.08
2023-04-14T09:05:38.378Z,9.11
2023-04-14T09:08:06.388Z,9.14
2023-04-14T09:10:36.047Z,9.18
2023-04-14T09:13:04.810Z,9.21
2023-04-14T09:15:32.558Z,9.20
2023-04-14T09:18:01.430Z,9.18
2023-04-14T09:20:34.683Z,9.22
2023-04-14T09:23:05.291Z,9.24
2023-04-14T09:25:33.986Z,9.26
2023-04-14T09:28:01.731Z,9.30
2023-04-14T09:30:31.504Z,9.32
2023-04-14T09:32:59.483Z,9.35
2023-04-14T09:35:51.752Z,9.36
2023-04-14T09:38:36.634Z,9.35
2023-04-14T09:41:08.358Z,9.39
2023-04-14T09:43:39.599Z,9.42
2023-04-14T09:46:08.837Z,9.44
2023-04-14T09:48:37.750Z,9.48
2023-04-14T09:51:10.041Z,9.50
2023-04-14T09:53:40.685Z,9.51
2023-04-14T09:56:10.740Z,9.52
2023-04-14T09:58:40.768Z,9.56
2023-04-14T10:01:13.301Z,9.61
2023-04-14T10:03:42.178Z,9.64
2023-04-14T10:06:16.038Z,9.72
2023-04-14T10:08:52.379Z,9.76
2023-04-14T10:11:25.896Z,9.78
2023-04-14T10:13:54.947Z,9.80
2023-04-14T10:16:24.065Z,9.85
2023-04-14T10:18:53.415Z,9.93
2023-04-14T10:21:23.184Z,9.99
2023-04-14T10:23:51.658Z,10.04
2023-04-14T10:26:20.090Z,10.08
2023-04-14T10:28:50.504Z,10.10
2023-04-14T10:31:25.647Z,10.13
2023-04-14T10:33:54.375Z,10.16
2023-04-14T10:36:26.876Z,10.19
2023-04-14T10:38:59.798Z,10.23
2023-04-14T10:41:28.740Z,10.22
2023-04-14T10:43:56.644Z,10.28
2023-04-14T10:46:24.820Z,10.28
2023-04-14T10:48:52.657Z,10.27
2023-04-14T10:51:21.560Z,10.28
2023-04-14T10:53:52.339Z,10.22
2023-04-14T10:56:21.833Z,10.35
2023-04-14T10:58:56.729Z,10.38
2023-04-14T11:01:32.957Z,10.40
2023-04-14T11:04:19.573Z,10.41
2023-04-14T11:06:47.876Z,10.42
2023-04-14T11:09:42.729Z,10.45
2023-04-14T11:12:24.810Z,10.52
2023-04-14T11:14:57.177Z,10.57
2023-04-14T11:17:29.641Z,10.61
2023-04-14T11:19:58.190Z,10.64
2023-04-14T11:22:43.970Z,10.63
2023-04-14T11:25:14.262Z,10.64
2023-04-14T11:27:43.658Z,10.65
2023-04-14T11:30:21.835Z,10.69
2023-04-14T11:32:51.945Z,10.75
2023-04-14T11:35:22.681Z,10.80
2023-04-14T11:37:56.361Z,10.83
2023-04-14T11:40:26.798Z,10.87
2023-04-14T11:42:57.219Z,10.90
2023-04-14T11:45:29.575Z,10.92
2023-04-14T11:48:01.484Z,10.94
2023-04-14T11:50:36.034Z,10.96
2023-04-14T11:53:08.618Z,11.00
2023-04-14T11:55:37.162Z,11.03
2023-04-14T11:58:05.151Z,11.07
2023-04-14T12:00:32.942Z,11.07
2023-04-14T12:03:04.938Z,11.11
2023-04-14T12:05:33.976Z,11.15
2023-04-14T12:08:08.776Z,11.20
2023-04-14T12:10:43.578Z,11.26
2023-04-14T12:13:12.280Z,11.29
2023-04-14T12:15:41.700Z,11.29
2023-04-14T12:18:16.422Z,11.29
2023-04-14T12:20:54.251Z,11.29
2023-04-14T12:23:22.578Z,11.30
2023-04-14T12:25:51.554Z,11.32
2023-04-14T12:28:25.150Z,11.33
2023-04-14T12:30:57.421Z,11.35
2023-04-14T12:33:27.545Z,11.38
2023-04-14T12:36:07.584Z,11.39
2023-04-14T12:38:35.991Z,11.41
2023-04-14T12:41:04.022Z,11.41
2023-04-14T12:43:33.797Z,11.41
2023-04-14T12:46:04.148Z,11.40
2023-04-14T12:48:44.423Z,11.41
2023-04-14T12:51:17.534Z,11.42
2023-04-14T12:53:47.630Z,11.45
2023-04-14T12:56:17.661Z,11.48
2023-04-14T12:58:50.185Z,11.49
2023-04-14T13:01:22.383Z,11.50
2023-04-14T13:03:52.752Z,11.49
2023-04-14T13:06:22.634Z,11.47
2023-04-14T13:08:52.404Z,11.46
2023-04-14T13:11:22.491Z,11.45
2023-04-14T13:13:52.426Z,11.45
2023-04-14T13:16:20.724Z,11.45
2023-04-14T13:18:49.592Z,11.45
2023-04-14T13:21:17.349Z,11.47
2023-04-14T13:23:45.080Z,11.49
2023-04-14T13:26:13.198Z,11.50
2023-04-14T13:28:41.457Z,11.50
2023-04-14T13:31:10.236Z,11.48
2023-04-14T13:33:38.554Z,11.47
2023-04-14T13:36:06.799Z,11.48
2023-04-14T13:38:34.643Z,11.48
2023-04-14T13:41:02.774Z,11.49
2023-04-14T13:43:32.779Z,11.50
2023-04-14T13:46:01.157Z,11.51
2023-04-14T13:48:30.636Z,11.51
2023-04-14T13:50:59.678Z,11.53
2023-04-14T13:53:27.443Z,11.54
2023-04-14T13:55:55.227Z,11.54
2023-04-14T13:58:23.054Z,11.51
2023-04-14T14:00:51.617Z,11.49
2023-04-14T14:03:19.719Z,11.48
2023-04-14T14:05:47.472Z,11.49
2023-04-14T14:08:16.011Z,11.51
2023-04-14T14:10:44.148Z,11.54
2023-04-14T14:13:11.997Z,11.57
2023-04-14T14:15:39.796Z,11.59
2023-04-14T14:18:07.615Z,11.59
2023-04-14T14:20:35.708Z,11.59
2023-04-14T14:23:03.572Z,11.58
2023-04-14T14:25:31.390Z,11.57
2023-04-14T14:27:59.505Z,11.56
2023-04-14T14:30:27.486Z,11.58
2023-04-14T14:32:55.453Z,11.60
2023-04-14T14:35:23.321Z,11.63
2023-04-14T14:37:51.529Z,11.65
2023-04-14T14:40:19.519Z,11.66
2023-04-14T14:42:47.392Z,11.67
2023-04-14T14:45:15.472Z,11.67
2023-04-14T14:47:47.019Z,11.66
2023-04-14T14:50:14.687Z,11.66
2023-04-14T14:52:42.467Z,11.67
2023-04-14T14:55:10.488Z,11.69
2023-04-14T14:57:38.183Z,11.71
2023-04-14T15:00:08.027Z,11.73
2023-04-14T15:02:36.758Z,11.75
2023-04-14T15:05:05.944Z,11.75
2023-04-14T15:07:34.098Z,11.74
2023-04-14T15:10:04.569Z,11.72
2023-04-14T15:12:32.658Z,11.68
2023-04-14T15:15:00.621Z,11.66
2023-04-14T15:17:28.591Z,11.64
2023-04-14T15:19:56.839Z,11.63
2023-04-14T15:22:24.640Z,11.62
2023-04-14T15:24:53.149Z,11.64
2023-04-14T15:27:21.604Z,11.65
2023-04-14T15:29:49.458Z,11.65
2023-04-14T15:32:17.290Z,11.65
2023-04-14T15:34:45.416Z,11.65
2023-04-14T15:37:13.230Z,11.63
2023-04-14T15:39:41.219Z,11.60
2023-04-14T15:42:09.051Z,11.56
2023-04-14T15:44:36.713Z,11.55
2023-04-14T15:47:05.340Z,11.53
2023-04-14T15:49:33.050Z,11.53
2023-04-14T15:52:00.868Z,11.54
2023-04-14T15:54:28.835Z,11.55
2023-04-14T15:56:57.045Z,11.56
2023-04-14T15:59:25.078Z,11.56
2023-04-14T16:01:53.748Z,11.55
2023-04-14T16:04:22.471Z,11.53
2023-04-14T16:06:50.627Z,11.50
2023-04-14T16:09:18.489Z,11.47
2023-04-14T16:11:46.322Z,11.46
2023-04-14T16:14:14.262Z,11.45
2023-04-14T16:16:46.926Z,11.46
2023-04-14T16:19:16.327Z,11.48
2023-04-14T16:21:44.101Z,11.49
2023-04-14T16:24:12.387Z,11.48
2023-04-14T16:26:40.218Z,11.46
2023-04-14T16:29:07.926Z,11.42
2023-04-14T16:31:35.914Z,11.38
2023-04-14T16:34:04.300Z,11.34
2023-04-14T16:36:33.407Z,11.33
2023-04-14T16:39:01.780Z,11.32
2023-04-14T16:41:29.992Z,11.32
2023-04-14T16:43:57.857Z,11.33
2023-04-14T16:46:26.276Z,11.33
2023-04-14T16:48:54.301Z,11.33
2023-04-14T16:51:22.786Z,11.31
2023-04-14T16:53:50.695Z,11.27
2023-04-14T16:56:19.636Z,11.23
2023-04-14T16:58:47.595Z,11.21
2023-04-14T17:01:15.572Z,11.20
2023-04-14T17:03:43.678Z,11.19
2023-04-14T17:06:11.708Z,11.17
2023-04-14T17:08:39.823Z,11.16
2023-04-14T17:11:07.489Z,11.15
2023-04-14T17:13:35.435Z,11.15
2023-04-14T17:16:08.886Z,11.14
2023-04-14T17:18:38.152Z,11.11
2023-04-14T17:21:06.583Z,11.08
2023-04-14T17:23:38.150Z,11.06
2023-04-14T17:26:06.385Z,11.05
2023-04-14T17:28:35.760Z,11.04
2023-04-14T17:31:08.179Z,11.03
2023-04-14T17:33:36.379Z,11.02
2023-04-14T17:36:04.441Z,11.02
2023-04-14T17:38:32.524Z,11.03
2023-04-14T17:41:00.306Z,11.03
2023-04-14T17:43:29.092Z,11.02
2023-04-14T17:45:57.065Z,10.99
2023-04-14T17:48:26.044Z,10.96
2023-04-14T17:50:54.626Z,10.93
2023-04-14T17:53:22.832Z,10.90
2023-04-14T17:55:51.558Z,10.87
2023-04-14T17:58:20.346Z,10.86
2023-04-14T18:00:48.067Z,10.86
2023-04-14T18:03:16.458Z,10.86
2023-04-14T18:05:44.358Z,10.87
2023-04-14T18:08:12.159Z,10.87
2023-04-14T18:10:40.463Z,10.85
2023-04-14T18:13:09.482Z,10.84
2023-04-14T18:15:40.455Z,10.81
2023-04-14T18:18:09.032Z,10.78
2023-04-14T18:20:37.777Z,10.74
2023-04-14T18:23:05.707Z,10.74
2023-04-14T18:28:05.501Z,10.74
2023-04-14T18:30:33.928Z,10.76
2023-04-14T18:33:01.933Z,10.78
2023-04-14T18:35:29.774Z,10.81
2023-04-14T18:37:57.734Z,10.82
2023-04-14T18:40:27.597Z,10.80
2023-04-14T18:42:57.521Z,10.78
2023-04-14T18:45:25.492Z,10.75
2023-04-14T18:47:53.416Z,10.72
2023-04-14T18:50:21.728Z,10.69
2023-04-14T18:52:49.781Z,10.68
2023-04-14T18:55:19.446Z,10.68
2023-04-14T18:57:48.501Z,10.67
2023-04-14T19:00:17.030Z,10.67
2023-04-14T19:02:44.879Z,10.70
2023-04-14T19:05:13.483Z,10.71
2023-04-14T19:07:41.318Z,10.71
2023-04-14T19:10:10.413Z,10.71
2023-04-14T19:12:40.546Z,10.69
2023-04-14T19:15:09.161Z,10.69
2023-04-14T19:17:37.202Z,10.67
2023-04-14T19:20:07.001Z,10.65
2023-04-14T19:22:34.830Z,10.65
2023-04-14T19:25:02.611Z,10.64
2023-04-14T19:27:30.654Z,10.64
2023-04-14T19:29:59.413Z,10.64
2023-04-14T19:32:27.412Z,10.62
2023-04-14T19:34:55.586Z,10.61
2023-04-14T19:37:23.365Z,10.61
2023-04-14T19:39:51.093Z,10.63
2023-04-14T19:42:18.956Z,10.63
2023-04-14T19:44:46.695Z,10.64
2023-04-14T19:47:14.587Z,10.60
2023-04-14T19:49:42.824Z,10.55
2023-04-14T19:52:10.812Z,10.54
2023-04-14T19:54:38.796Z,10.55
2023-04-14T19:57:06.927Z,10.55
2023-04-14T19:59:34.652Z,10.57
2023-04-14T20:02:05.106Z,10.59
2023-04-14T20:04:33.353Z,10.61
2023-04-14T20:07:01.500Z,10.64
2023-04-14T20:09:29.279Z,10.66
2023-04-14T20:11:57.105Z,10.65
2023-04-14T20:14:24.993Z,10.64
2023-04-14T20:16:54.505Z,10.59
2023-04-14T20:19:22.764Z,10.56
2023-04-14T20:21:50.951Z,10.54
2023-04-14T20:24:19.091Z,10.52
2023-04-14T20:26:46.814Z,10.53
2023-04-14T20:29:17.501Z,10.54
2023-04-14T20:31:45.266Z,10.57
2023-04-14T20:34:13.650Z,10.57
2023-04-14T20:36:42.007Z,10.55
2023-04-14T20:39:09.879Z,10.52
2023-04-14T20:41:37.635Z,10.50
2023-04-14T20:44:05.433Z,10.48
2023-04-14T20:46:33.317Z,10.47
2023-04-14T20:49:02.948Z,10.47
2023-04-14T20:51:32.341Z,10.48
2023-04-14T20:54:02.028Z,10.49
2023-04-14T20:56:30.991Z,10.50
2023-04-14T20:58:59.164Z,10.51
2023-04-14T21:01:28.220Z,10.52
2023-04-14T21:03:56.374Z,10.51
2023-04-14T21:06:25.254Z,10.50
2023-04-14T21:08:52.999Z,10.48
2023-04-14T21:11:20.839Z,10.48
2023-04-14T21:15:29.406Z,10.47
2023-04-14T21:16:37.037Z,10.47
2023-04-14T21:19:05.728Z,10.49
2023-04-14T21:21:34.355Z,10.48
2023-04-14T21:24:02.642Z,10.46
2023-04-14T21:26:31.056Z,10.47
2023-04-14T21:28:58.871Z,10.48
2023-04-14T21:31:27.618Z,10.50
2023-04-14T21:33:55.389Z,10.49
2023-04-14T21:36:23.169Z,10.45
2023-04-14T21:38:51.774Z,10.41
2023-04-14T21:41:20.113Z,10.40
2023-04-14T21:43:48.022Z,10.41
2023-04-14T21:46:16.114Z,10.42
2023-04-14T21:48:44.083Z,10.42
2023-04-14T21:51:11.837Z,10.43
2023-04-14T21:53:39.535Z,10.44
2023-04-14T21:56:10.761Z,10.45
2023-04-14T21:58:39.699Z,10.45
2023-04-14T22:01:09.938Z,10.46
2023-04-14T22:03:41.474Z,10.46
2023-04-14T22:06:12.138Z,10.42
2023-04-14T22:08:40.779Z,10.39
2023-04-14T22:11:09.001Z,10.38
2023-04-14T22:13:36.897Z,10.38
2023-04-14T22:16:05.295Z,10.39
2023-04-14T22:18:33.150Z,10.38
2023-04-14T22:21:00.998Z,10.38
2023-04-14T22:23:28.944Z,10.39
2023-04-14T22:25:57.012Z,10.40
2023-04-14T22:28:24.701Z,10.39
2023-04-14T22:30:52.577Z,10.39
2023-04-14T22:33:20.380Z,10.37
2023-04-14T22:35:48.190Z,10.32
2023-04-14T22:38:16.492Z,10.31
2023-04-14T22:40:44.419Z,10.31
2023-04-14T22:43:12.284Z,10.31
2023-04-14T22:45:41.662Z,10.30
2023-04-14T22:48:10.424Z,10.32
2023-04-14T22:50:39.115Z,10.33
2023-04-14T22:53:08.982Z,10.32
2023-04-14T22:55:36.721Z,10.30
2023-04-14T22:58:04.604Z,10.29
2023-04-14T23:00:32.401Z,10.28
2023-04-14T23:03:00.550Z,10.28
2023-04-14T23:05:28.668Z,10.27
2023-04-14T23:07:56.362Z,10.28
2023-04-14T23:10:24.958Z,10.28
2023-04-14T23:12:53.006Z,10.31
2023-04-14T23:15:20.784Z,10.32
2023-04-14T23:17:48.692Z,10.31
2023-04-14T23:20:16.525Z,10.30
2023-04-14T23:22:44.195Z,10.29
2023-04-14T23:25:11.817Z,10.28
2023-04-14T23:27:39.451Z,10.28
2023-04-14T23:30:07.847Z,10.29
2023-04-14T23:32:35.962Z,10.30
2023-04-14T23:35:04.227Z,10.32
2023-04-14T23:37:32.012Z,10.35
2023-04-14T23:40:04.549Z,10.39
2023-04-14T23:42:34.438Z,10.41
2023-04-14T23:45:02.198Z,10.40
2023-04-14T23:47:30.059Z,10.40
2023-04-14T23:49:58.308Z,10.42
2023-04-14T23:52:25.974Z,10.42
2023-04-14T23:54:53.765Z,10.40
2023-04-14T23:57:21.595Z,10.39
2023-04-14T23:59:49.365Z,10.40
